createdAt,value
2022-08-28T00:04:23.320Z,0.05
2022-08-28T00:09:21.857Z,0.05
2022-08-28T00:24:18.950Z,0.05
2022-08-28T00:29:18.617Z,0.05
2022-08-28T00:34:18.783Z,0.05
2022-08-28T00:39:21.923Z,0.05
2022-08-28T01:13:28.562Z,0.05
2022-08-28T01:18:28.188Z,0.05
2022-08-28T01:23:28.290Z,0.05
2022-08-28T01:28:27.521Z,0.05
2022-08-28T01:33:30.724Z,0.05
2022-08-28T01:38:29.215Z,0.05
2022-08-28T01:43:23.316Z,0.05
2022-08-28T01:48:22.920Z,0.05
2022-08-28T01:53:34.174Z,0.05
2022-08-28T01:58:22.504Z,0.05
2022-08-28T01:59:45.439Z,0.05
2022-08-28T02:04:49.655Z,0.05
2022-08-28T02:09:42.272Z,0.05
2022-08-28T02:14:41.281Z,0.05
2022-08-28T02:19:39.625Z,0.05
2022-08-28T02:24:39.309Z,0.05
2022-08-28T02:29:37.934Z,0.05
2022-08-28T02:34:37.629Z,0.05
2022-08-28T02:39:37.231Z,0.05
2022-08-28T02:44:38.281Z,0.05
2022-08-28T02:49:38.670Z,0.05
2022-08-28T02:54:35.486Z,0.05
2022-08-28T02:58:58.659Z,0.05
2022-08-28T03:03:54.876Z,0.05
2022-08-28T03:08:54.315Z,0.05
2022-08-28T03:13:53.342Z,0.05
2022-08-28T03:18:52.973Z,0.05
2022-08-28T03:23:52.643Z,0.05
2022-08-28T03:28:52.286Z,0.05
2022-08-28T03:33:51.557Z,0.05
2022-08-28T03:38:50.978Z,0.05
2022-08-28T03:43:49.237Z,0.05
2022-08-28T03:48:47.284Z,0.05
2022-08-28T03:53:46.775Z,0.05
2022-08-28T03:58:46.042Z,0.05
2022-08-28T04:03:46.273Z,0.05
2022-08-28T04:08:45.453Z,0.05
2022-08-28T04:13:46.363Z,0.05
2022-08-28T04:18:43.475Z,0.06
2022-08-28T04:23:43.975Z,0.06
2022-08-28T04:28:40.610Z,0.07
2022-08-28T04:33:39.907Z,0.08
2022-08-28T04:38:45.257Z,0.11
2022-08-28T04:43:38.851Z,0.15
2022-08-28T04:48:38.799Z,0.19
2022-08-28T04:53:37.780Z,0.23
2022-08-28T04:58:37.516Z,0.28
2022-08-28T05:03:36.538Z,0.28
2022-08-28T05:08:34.622Z,0.34
2022-08-28T05:13:34.948Z,0.39
2022-08-28T05:18:34.247Z,0.49
2022-08-28T05:23:34.123Z,0.54
2022-08-28T05:28:33.740Z,0.64
2022-08-28T05:33:33.351Z,0.81
2022-08-28T05:38:33.033Z,0.98
2022-08-28T05:43:31.985Z,1.11
2022-08-28T05:48:40.173Z,1.25
2022-08-28T05:53:29.309Z,1.44
2022-08-28T05:58:28.689Z,1.56
2022-08-28T05:59:50.346Z,1.66
2022-08-28T06:04:50.299Z,1.74
2022-08-28T06:09:49.855Z,1.74
2022-08-28T06:14:50.492Z,2.24
2022-08-28T06:19:48.844Z,2.25
2022-08-28T06:24:47.862Z,1.85
2022-08-28T06:29:46.124Z,1.55
2022-08-28T06:34:45.343Z,1.61
2022-08-28T06:39:44.822Z,2.24
2022-08-28T06:44:44.736Z,2.77
2022-08-28T06:49:44.206Z,3.07
2022-08-28T06:54:57.651Z,3.66
2022-08-28T06:59:19.043Z,4.29
2022-08-28T07:04:19.001Z,4.55
2022-08-28T07:09:17.001Z,4.88
2022-08-28T07:14:16.910Z,5.08
2022-08-28T07:19:16.428Z,5.35
2022-08-28T07:24:15.946Z,5.8
2022-08-28T07:29:28.742Z,6.14
2022-08-28T07:34:07.369Z,6.26
2022-08-28T07:39:06.500Z,6.66
2022-08-28T07:44:05.166Z,7.15
2022-08-28T07:49:04.247Z,7.67
2022-08-28T07:54:03.448Z,7.98
2022-08-28T07:58:52.186Z,7.69
2022-08-28T08:04:03.294Z,8.02
2022-08-28T08:08:51.365Z,7.73
2022-08-28T08:13:52.999Z,7.23
2022-08-28T08:18:50.769Z,7.82
2022-08-28T08:23:51.027Z,5.96
2022-08-28T08:28:47.803Z,4.88
2022-08-28T08:33:47.334Z,5.18
2022-08-28T08:38:48.867Z,8.5
2022-08-28T08:43:46.783Z,8.61
2022-08-28T08:48:46.133Z,16.33
2022-08-28T08:53:45.701Z,12.68
2022-08-28T08:58:46.107Z,11.49
2022-08-28T09:03:47.043Z,10.91
2022-08-28T09:08:44.788Z,10.83
2022-08-28T09:13:42.131Z,8.59
2022-08-28T09:18:41.328Z,8.96
2022-08-28T09:23:41.033Z,20.03
2022-08-28T09:28:40.339Z,19.72
2022-08-28T09:33:43.511Z,11.14
2022-08-28T09:38:40.492Z,21.93
2022-08-28T09:43:39.222Z,15.14
2022-08-28T09:48:38.078Z,13.26
2022-08-28T09:53:38.436Z,22.21
2022-08-28T09:58:35.910Z,24.1
2022-08-28T09:59:57.946Z,24.2
2022-08-28T10:04:57.542Z,13.99
2022-08-28T10:09:58.960Z,11.85
2022-08-28T10:14:57.585Z,23.44
2022-08-28T10:19:56.753Z,24.6
2022-08-28T10:24:55.317Z,25.91
2022-08-28T10:29:54.194Z,14.48
2022-08-28T10:34:52.275Z,15.85
2022-08-28T10:39:51.431Z,12.61
2022-08-28T10:44:50.161Z,17
2022-08-28T10:49:49.446Z,23.74
2022-08-28T10:54:49.142Z,22.88
2022-08-28T10:58:58.107Z,14.18
2022-08-28T11:03:58.518Z,20.99
2022-08-28T11:09:18.487Z,26.09
2022-08-28T11:13:57.004Z,24.91
2022-08-28T11:18:55.507Z,25.38
2022-08-28T11:28:55.331Z,25.51
2022-08-28T11:33:54.750Z,25.49
2022-08-28T11:38:53.720Z,24.56
2022-08-28T11:43:52.372Z,25.16
2022-08-28T11:48:51.803Z,25.17
2022-08-28T11:53:50.774Z,23.58
2022-08-28T11:58:51.711Z,23.38
2022-08-28T12:03:50.032Z,23.21
2022-08-28T12:08:49.830Z,23.56
2022-08-28T12:13:50.082Z,23.14
2022-08-28T12:18:48.988Z,23.71
2022-08-28T12:23:47.978Z,23.79
2022-08-28T12:28:46.858Z,23.79
2022-08-28T12:33:45.978Z,24.67
2022-08-28T12:38:45.066Z,23.92
2022-08-28T12:43:48.794Z,23.89
2022-08-28T12:48:44.446Z,22.71
2022-08-28T12:53:44.002Z,22.38
2022-08-28T12:58:43.549Z,22.56
2022-08-28T13:03:42.451Z,22.23
2022-08-28T13:08:41.921Z,21.73
2022-08-28T13:13:39.536Z,20.71
2022-08-28T13:18:38.980Z,12.01
2022-08-28T13:23:37.875Z,18.81
2022-08-28T13:28:37.863Z,18.92
2022-08-28T13:33:37.237Z,19.74
2022-08-28T13:38:36.763Z,19.82
2022-08-28T13:43:35.651Z,19.58
2022-08-28T13:48:34.851Z,12.3
2022-08-28T13:53:34.679Z,11.5
2022-08-28T13:58:32.123Z,9.08
2022-08-28T13:59:57.378Z,9.02
2022-08-28T14:04:52.467Z,16.63
2022-08-28T14:09:57.968Z,16.28
2022-08-28T14:14:51.417Z,16.07
2022-08-28T14:19:50.920Z,15.45
2022-08-28T14:24:51.206Z,15.43
2022-08-28T14:29:49.710Z,14.73
2022-08-28T14:34:50.139Z,14.16
2022-08-28T14:39:46.513Z,13.78
2022-08-28T14:44:45.466Z,13.17
2022-08-28T14:49:45.677Z,7.67
2022-08-28T14:54:44.818Z,6.83
2022-08-28T14:59:05.546Z,6.1
2022-08-28T15:04:05.443Z,5.63
2022-08-28T15:09:03.952Z,9.83
2022-08-28T15:14:02.937Z,10.03
2022-08-28T15:19:01.574Z,9.72
2022-08-28T15:24:01.074Z,9.1
2022-08-28T15:28:59.849Z,8.69
2022-08-28T15:33:59.720Z,6.88
2022-08-28T15:39:00.159Z,6.4
2022-08-28T15:43:58.964Z,5.35
2022-08-28T15:48:58.800Z,5.06
2022-08-28T15:53:57.388Z,4.94
2022-08-28T15:58:19.739Z,4.64
2022-08-28T16:03:19.892Z,5.68
2022-08-28T16:08:17.720Z,4.65
2022-08-28T16:13:16.809Z,4.71
2022-08-28T16:18:16.213Z,3.65
2022-08-28T16:23:14.745Z,3.8
2022-08-28T16:28:22.054Z,3.34
2022-08-28T16:33:22.474Z,3.44
2022-08-28T16:38:21.526Z,3.33
2022-08-28T16:43:18.788Z,3.02
2022-08-28T16:48:18.340Z,2.8
2022-08-28T16:53:29.538Z,2.5
2022-08-28T16:58:19.596Z,2.26
2022-08-28T16:59:39.466Z,2.23
2022-08-28T17:04:38.133Z,2.01
2022-08-28T17:09:37.150Z,1.76
2022-08-28T17:14:35.641Z,1.59
2022-08-28T17:19:35.055Z,1.44
2022-08-28T17:24:34.452Z,1.27
2022-08-28T17:29:33.249Z,1.1
2022-08-28T17:34:32.850Z,0.96
2022-08-28T17:39:32.050Z,0.82
2022-08-28T17:44:31.707Z,0.69
2022-08-28T17:49:30.117Z,0.57
2022-08-28T17:54:28.900Z,0.46
2022-08-28T17:58:46.049Z,0.38
2022-08-28T18:00:07.919Z,0.35
2022-08-28T18:05:06.368Z,0.27
2022-08-28T18:10:05.945Z,0.26
2022-08-28T18:15:05.052Z,0.19
2022-08-28T18:20:04.619Z,0.14
2022-08-28T18:25:03.397Z,0.1
2022-08-28T18:30:03.597Z,0.08
2022-08-28T18:35:03.007Z,0.06
2022-08-28T18:40:02.548Z,0.06
2022-08-28T18:44:58.133Z,0.06
2022-08-28T18:49:57.619Z,0.06
2022-08-28T18:55:06.666Z,0.05
2022-08-28T18:58:57.372Z,0.05
2022-08-28T19:03:56.971Z,0.05
2022-08-28T19:08:56.715Z,0.05
2022-08-28T19:13:55.836Z,0.05
2022-08-28T19:18:56.512Z,0.05
2022-08-28T19:23:57.907Z,0.05
2022-08-28T19:28:51.570Z,0.05
2022-08-28T19:33:51.530Z,0.05
2022-08-28T19:38:49.681Z,0.05
2022-08-28T19:43:49.655Z,0.05
2022-08-28T19:48:49.853Z,0.05
2022-08-28T19:53:54.794Z,0.05
2022-08-28T19:58:47.797Z,0.05
2022-08-28T20:00:17.124Z,0.05
2022-08-28T20:05:16.506Z,0.05
2022-08-28T20:10:15.830Z,0.05
2022-08-28T20:15:18.068Z,0.05
2022-08-28T20:20:07.911Z,0.05
2022-08-28T20:25:06.946Z,0.05
2022-08-28T20:30:13.284Z,0.05
2022-08-28T20:35:06.339Z,0.05
2022-08-28T20:40:10.698Z,0.05
2022-08-28T20:45:02.269Z,0.05
2022-08-28T20:50:01.652Z,0.05
2022-08-28T20:55:00.642Z,0.05
2022-08-28T20:59:21.783Z,0.05
2022-08-28T21:04:21.312Z,0.05
2022-08-28T21:09:19.974Z,0.05
2022-08-28T21:14:19.694Z,0.05
2022-08-28T21:19:19.009Z,0.05
2022-08-28T21:24:16.494Z,0.05
2022-08-28T21:29:16.781Z,0.05
2022-08-28T21:34:15.244Z,0.05
2022-08-28T21:39:15.092Z,0.05
2022-08-28T21:44:14.574Z,0.05
2022-08-28T21:49:21.009Z,0.05
2022-08-28T21:54:21.554Z,0.05
2022-08-28T21:59:03.274Z,0.05
2022-08-28T22:04:02.450Z,0.05
2022-08-28T22:09:00.628Z,0.05
2022-08-28T22:14:00.200Z,0.05
2022-08-28T22:18:59.304Z,0.05
2022-08-28T22:23:59.147Z,0.05
2022-08-28T22:28:57.833Z,0.05
2022-08-28T22:33:57.081Z,0.05
2022-08-28T22:38:57.106Z,0.05
2022-08-28T22:43:54.708Z,0.05
2022-08-28T22:48:53.662Z,0.05
2022-08-28T22:53:53.541Z,0.05
2022-08-28T22:58:53.928Z,0.05
2022-08-28T23:03:52.755Z,0.05
2022-08-28T23:08:52.105Z,0.05
2022-08-28T23:13:51.031Z,0.05
2022-08-28T23:19:14.403Z,0.05
2022-08-28T23:23:47.665Z,0.05
2022-08-28T23:28:46.372Z,0.05
2022-08-28T23:33:46.265Z,0.05
2022-08-28T23:38:45.680Z,0.05
2022-08-28T23:43:44.666Z,0.05
2022-08-28T23:48:50.201Z,0.05
2022-08-28T23:53:45.131Z,0.05
2022-08-28T23:58:46.607Z,0.05
